Time;durP1;ratioP1;P1;durP2;ratioP2;P2;SDS_P1;SDS_P2;PMS_P1;PMS_P2;Temp;Humidity;BMP_temperature;BMP_pressure;BME280_temperature;BME280_humidity;BME280_pressure;Samples;Min_cycle;Max_cycle;Signal;HPM_P1;HPM_P2
2023/04/30 00:00:22;;;;;;;7.22;6.62;;;14.90;69.90;;;;;;942777;151;27570;-77
2023/04/30 00:02:49;;;;;;;6.83;6.25;;;14.90;70.00;;;;;;942529;149;27325;-76
2023/04/30 00:05:15;;;;;;;6.83;6.33;;;14.90;70.10;;;;;;943446;149;27377;-77
2023/04/30 00:07:42;;;;;;;6.90;6.28;;;14.90;69.40;;;;;;943310;151;27320;-76
2023/04/30 00:10:09;;;;;;;7.40;6.70;;;14.80;70.20;;;;;;943110;149;27409;-76
2023/04/30 00:12:35;;;;;;;6.45;5.95;;;14.80;70.20;;;;;;943112;149;27376;-76
2023/04/30 00:15:02;;;;;;;7.42;6.78;;;14.80;70.30;;;;;;943105;149;27798;-76
2023/04/30 00:17:28;;;;;;;7.53;6.87;;;14.80;70.30;;;;;;942770;151;27734;-76
2023/04/30 00:19:55;;;;;;;7.17;6.53;;;14.80;70.40;;;;;;942772;149;27382;-76
2023/04/30 00:22:22;;;;;;;7.00;6.40;;;14.80;70.50;;;;;;943548;151;27340;-76
2023/04/30 00:24:48;;;;;;;7.13;6.43;;;14.80;70.60;;;;;;943194;151;27335;-76
2023/04/30 00:27:15;;;;;;;7.67;6.87;;;14.80;70.70;;;;;;942487;151;27363;-76
2023/04/30 00:29:41;;;;;;;7.70;7.05;;;14.80;70.70;;;;;;943119;149;27432;-76
2023/04/30 00:32:08;;;;;;;9.08;6.95;;;14.70;70.80;;;;;;943743;149;27445;-77
2023/04/30 00:34:35;;;;;;;8.35;7.28;;;14.70;71.00;;;;;;943187;149;27475;-77
2023/04/30 00:37:01;;;;;;;6.92;6.40;;;14.70;71.10;;;;;;943791;151;27486;-77
2023/04/30 00:39:28;;;;;;;7.70;7.00;;;14.70;71.10;;;;;;943307;149;27339;-76
2023/04/30 00:41:54;;;;;;;7.05;6.45;;;14.70;71.20;;;;;;942584;151;27424;-76
2023/04/30 00:44:21;;;;;;;7.95;7.25;;;14.70;71.70;;;;;;943083;151;27288;-76
2023/04/30 00:46:47;;;;;;;7.83;7.13;;;14.70;71.40;;;;;;943446;151;27403;-76
2023/04/30 00:49:14;;;;;;;7.17;6.58;;;14.60;71.40;;;;;;942680;149;27359;-76
2023/04/30 00:51:41;;;;;;;7.10;6.50;;;14.60;71.60;;;;;;942829;151;27444;-76
2023/04/30 00:54:07;;;;;;;7.53;6.92;;;14.60;71.70;;;;;;943206;151;27436;-77
2023/04/30 00:56:34;;;;;;;7.63;6.97;;;14.60;71.60;;;;;;943454;151;27393;-76
2023/04/30 00:59:01;;;;;;;7.60;6.37;;;14.60;71.70;;;;;;943212;151;27489;-76
2023/04/30 01:01:30;;;;;;;8.10;7.40;;;14.60;71.80;;;;;;943469;149;27408;-77
2023/04/30 01:03:56;;;;;;;7.57;6.83;;;14.60;71.70;;;;;;942228;151;27723;-76
2023/04/30 01:06:23;;;;;;;8.48;7.67;;;14.60;72.00;;;;;;942417;151;27381;-76
2023/04/30 01:08:49;;;;;;;7.10;6.50;;;14.60;72.00;;;;;;943048;146;27440;-76
2023/04/30 01:11:19;;;;;;;7.25;6.45;;;14.50;72.10;;;;;;943383;151;27344;-76
2023/04/30 01:13:55;;;;;;;8.50;7.57;;;14.50;72.20;;;;;;943080;151;27390;-76
2023/04/30 01:16:24;;;;;;;7.75;7.05;;;14.50;72.20;;;;;;941568;149;27366;-76
2023/04/30 01:18:50;;;;;;;7.95;7.35;;;14.50;72.20;;;;;;943570;149;27358;-76
2023/04/30 01:21:18;;;;;;;8.00;7.30;;;14.50;72.30;;;;;;941629;149;27675;-76
2023/04/30 01:24:05;;;;;;;7.90;7.17;;;14.40;72.50;;;;;;943182;151;27364;-76
2023/04/30 01:26:37;;;;;;;8.05;7.35;;;14.40;72.50;;;;;;943561;151;27698;-77
2023/04/30 01:29:04;;;;;;;8.03;7.27;;;14.40;72.50;;;;;;940263;149;27379;-76
2023/04/30 01:31:30;;;;;;;7.95;7.25;;;14.40;72.70;;;;;;942895;149;27313;-76
2023/04/30 01:33:57;;;;;;;7.80;7.20;;;14.40;72.80;;;;;;943122;151;27335;-76
2023/04/30 01:36:30;;;;;;;7.92;7.12;;;14.30;73.00;;;;;;943204;151;27309;-76
2023/04/30 01:38:58;;;;;;;8.13;7.42;;;14.30;73.00;;;;;;943334;149;27694;-77
2023/04/30 01:41:49;;;;;;;9.03;8.23;;;14.30;73.20;;;;;;941779;151;27310;-76
2023/04/30 01:44:41;;;;;;;8.73;7.90;;;14.30;73.10;;;;;;943056;151;27420;-76
2023/04/30 01:47:07;;;;;;;8.80;8.03;;;14.30;73.10;;;;;;936059;150;27325;-77
2023/04/30 01:49:52;;;;;;;8.00;7.30;;;14.30;73.00;;;;;;936660;149;27448;-76
2023/04/30 01:52:19;;;;;;;10.10;9.03;;;14.20;73.20;;;;;;936107;152;27367;-76
2023/04/30 01:54:45;;;;;;;9.87;8.93;;;14.20;73.10;;;;;;935832;152;27282;-76
2023/04/30 01:57:26;;;;;;;9.53;8.53;;;14.20;73.20;;;;;;936922;151;27422;-76
2023/04/30 01:59:53;;;;;;;9.40;8.50;;;14.20;73.30;;;;;;898920;152;27409;-77
2023/04/30 02:02:20;;;;;;;8.50;7.80;;;14.20;73.30;;;;;;913801;152;27899;-76
2023/04/30 02:04:46;;;;;;;9.53;7.97;;;14.10;73.50;;;;;;934391;149;27774;-76
2023/04/30 02:07:13;;;;;;;9.10;8.30;;;14.10;73.50;;;;;;934862;149;27345;-76
2023/04/30 02:09:40;;;;;;;11.70;9.13;;;14.10;73.60;;;;;;911200;152;27329;-76
2023/04/30 02:12:06;;;;;;;11.40;10.30;;;14.10;73.60;;;;;;935015;149;27333;-76
2023/04/30 02:14:33;;;;;;;11.30;10.13;;;14.10;73.60;;;;;;934767;149;27369;-76
2023/04/30 02:16:59;;;;;;;10.47;9.37;;;14.10;73.80;;;;;;935303;149;27450;-76
2023/04/30 02:19:26;;;;;;;10.47;9.57;;;14.00;73.60;;;;;;918205;152;27334;-77
2023/04/30 02:21:52;;;;;;;9.53;8.63;;;14.00;73.80;;;;;;912458;153;27441;-76
2023/04/30 02:24:19;;;;;;;9.73;8.83;;;14.00;73.80;;;;;;934468;149;27390;-76
2023/04/30 02:26:45;;;;;;;8.90;8.20;;;14.00;73.90;;;;;;933903;149;27482;-76
2023/04/30 02:29:12;;;;;;;8.70;7.90;;;13.90;73.90;;;;;;934859;150;27429;-76
2023/04/30 02:31:39;;;;;;;9.03;8.23;;;13.90;74.20;;;;;;918002;152;27472;-76
2023/04/30 02:34:05;;;;;;;9.47;8.47;;;13.90;74.30;;;;;;911652;152;27468;-76
2023/04/30 02:36:35;;;;;;;8.73;7.93;;;13.90;74.60;;;;;;928110;150;27479;-76
2023/04/30 02:38:58;;;;;;;9.30;8.37;;;13.90;74.60;;;;;;933466;149;27271;-76
2023/04/30 02:41:25;;;;;;;9.13;8.23;;;13.90;74.60;;;;;;912441;153;27362;-76
2023/04/30 02:43:52;;;;;;;8.73;8.03;;;13.80;74.70;;;;;;934441;149;27488;-76
2023/04/30 02:46:18;;;;;;;8.70;7.90;;;13.80;74.80;;;;;;918340;152;27546;-76
2023/04/30 02:48:45;;;;;;;8.83;8.07;;;13.80;74.90;;;;;;910729;152;27367;-76
2023/04/30 02:51:12;;;;;;;9.53;8.73;;;13.80;74.90;;;;;;917796;152;27491;-76
2023/04/30 02:53:38;;;;;;;9.28;8.38;;;13.80;75.00;;;;;;934653;149;27311;-76
2023/04/30 02:56:05;;;;;;;9.13;8.33;;;13.80;74.90;;;;;;935256;149;27456;-76
2023/04/30 02:58:31;;;;;;;9.90;9.00;;;13.70;74.90;;;;;;926581;152;27758;-76
2023/04/30 03:00:58;;;;;;;9.78;8.78;;;13.70;75.00;;;;;;927576;152;27500;-76
2023/04/30 03:03:25;;;;;;;9.00;8.17;;;13.70;75.00;;;;;;926458;152;27320;-77
2023/04/30 03:05:51;;;;;;;9.70;8.80;;;13.70;75.10;;;;;;926780;152;27362;-76
2023/04/30 03:08:20;;;;;;;10.33;9.07;;;13.70;75.20;;;;;;912095;151;27409;-76
2023/04/30 03:10:44;;;;;;;9.40;8.57;;;13.70;75.30;;;;;;933095;149;27475;-77
2023/04/30 03:13:11;;;;;;;9.53;8.63;;;13.60;75.30;;;;;;918867;151;27305;-76
2023/04/30 03:15:37;;;;;;;9.07;8.27;;;13.60;75.30;;;;;;912740;153;27429;-76
2023/04/30 03:18:04;;;;;;;9.50;8.57;;;13.60;75.50;;;;;;926783;152;27431;-76
2023/04/30 03:20:30;;;;;;;9.67;8.67;;;13.60;75.60;;;;;;927255;151;27408;-76
2023/04/30 03:22:57;;;;;;;9.83;9.00;;;13.60;75.60;;;;;;926934;152;27319;-76
2023/04/30 03:25:24;;;;;;;10.67;9.63;;;13.60;75.70;;;;;;926220;152;27403;-76
2023/04/30 03:27:50;;;;;;;9.43;8.43;;;13.60;75.90;;;;;;926936;152;27341;-76
2023/04/30 03:30:17;;;;;;;10.30;9.30;;;13.60;76.00;;;;;;927527;151;27459;-76
2023/04/30 03:32:43;;;;;;;9.47;8.63;;;13.60;76.10;;;;;;927243;152;27374;-76
2023/04/30 03:35:10;;;;;;;10.57;9.47;;;13.60;76.20;;;;;;926406;152;27438;-76
2023/04/30 03:37:37;;;;;;;10.50;9.43;;;13.60;76.20;;;;;;927028;152;27443;-76
2023/04/30 03:40:03;;;;;;;10.57;9.67;;;13.50;76.10;;;;;;927324;152;27382;-78
2023/04/30 03:42:30;;;;;;;10.47;9.47;;;13.50;76.10;;;;;;933397;149;27385;-78
2023/04/30 03:44:56;;;;;;;10.47;9.17;;;13.50;76.20;;;;;;934779;150;27334;-79
2023/04/30 03:47:23;;;;;;;10.80;9.80;;;13.50;76.30;;;;;;912451;153;27474;-78
2023/04/30 03:49:53;;;;;;;10.17;9.27;;;13.50;76.30;;;;;;927148;151;27460;-76
2023/04/30 03:52:16;;;;;;;9.90;9.10;;;13.50;76.40;;;;;;926767;152;27401;-77
2023/04/30 03:54:43;;;;;;;9.97;8.97;;;13.50;77.20;;;;;;927040;152;27346;-77
2023/04/30 03:57:11;;;;;;;10.90;9.63;;;13.40;76.40;;;;;;926482;151;27452;-77
2023/04/30 03:59:36;;;;;;;9.90;9.07;;;13.40;76.50;;;;;;926825;151;27431;-77
2023/04/30 04:02:02;;;;;;;10.60;9.60;;;13.40;76.40;;;;;;927430;152;27404;-77
2023/04/30 04:04:29;;;;;;;11.27;9.97;;;13.40;76.60;;;;;;919426;152;27391;-77
2023/04/30 04:06:56;;;;;;;10.13;9.03;;;13.30;76.50;;;;;;918166;152;27820;-77
2023/04/30 04:09:22;;;;;;;10.40;9.30;;;13.30;76.80;;;;;;934765;149;27389;-77
2023/04/30 04:11:49;;;;;;;10.57;9.60;;;13.30;76.80;;;;;;934667;150;27688;-77
2023/04/30 04:14:15;;;;;;;10.03;9.23;;;13.30;76.90;;;;;;934524;149;27354;-77
2023/04/30 04:16:42;;;;;;;10.63;9.60;;;13.30;77.00;;;;;;933927;149;27290;-77
2023/04/30 04:19:09;;;;;;;11.33;10.33;;;13.20;77.00;;;;;;934569;149;27356;-77
2023/04/30 04:21:35;;;;;;;10.73;9.73;;;13.20;77.10;;;;;;934302;150;27398;-77
2023/04/30 04:24:07;;;;;;;10.13;9.17;;;13.20;77.10;;;;;;911110;153;27470;-77
2023/04/30 04:26:29;;;;;;;10.30;9.33;;;13.20;77.40;;;;;;926055;151;27381;-77
2023/04/30 04:28:55;;;;;;;10.67;9.57;;;13.20;77.20;;;;;;926508;152;27447;-77
2023/04/30 04:31:22;;;;;;;11.07;9.73;;;13.20;77.30;;;;;;912230;153;27372;-77
2023/04/30 04:33:48;;;;;;;10.40;9.37;;;13.10;77.30;;;;;;935442;149;27385;-77
2023/04/30 04:36:15;;;;;;;10.60;9.60;;;13.10;77.60;;;;;;934705;149;27349;-77
2023/04/30 04:38:42;;;;;;;10.70;9.70;;;13.10;77.50;;;;;;911756;153;27368;-77
2023/04/30 04:41:08;;;;;;;10.07;9.07;;;13.10;77.60;;;;;;934989;149;27313;-77
2023/04/30 04:43:35;;;;;;;11.20;10.03;;;13.10;77.80;;;;;;918259;152;27366;-77
2023/04/30 04:46:01;;;;;;;11.03;9.47;;;13.10;78.60;;;;;;917130;152;27481;-77
2023/04/30 04:48:28;;;;;;;10.33;9.40;;;13.10;77.90;;;;;;933974;149;27691;-77
2023/04/30 04:50:54;;;;;;;8.97;8.27;;;13.10;78.90;;;;;;919556;152;27358;-77
2023/04/30 04:53:21;;;;;;;9.93;9.07;;;13.10;78.40;;;;;;911540;152;27324;-77
2023/04/30 04:55:47;;;;;;;9.77;8.90;;;13.20;78.90;;;;;;918734;152;27487;-77
2023/04/30 04:58:14;;;;;;;9.60;8.80;;;13.20;79.30;;;;;;911908;153;27457;-77
2023/04/30 05:00:41;;;;;;;9.77;8.87;;;13.30;79.50;;;;;;934672;150;27412;-77
2023/04/30 05:03:08;;;;;;;9.67;8.67;;;13.40;79.50;;;;;;916760;152;27310;-77
2023/04/30 05:05:34;;;;;;;9.33;8.13;;;13.50;79.60;;;;;;912138;153;27321;-76
2023/04/30 05:08:00;;;;;;;8.90;8.17;;;13.70;80.10;;;;;;934757;149;27823;-76
2023/04/30 05:10:27;;;;;;;9.67;8.67;;;13.90;81.10;;;;;;934036;150;27470;-77
2023/04/30 05:12:54;;;;;;;8.55;7.75;;;14.10;82.50;;;;;;917952;152;27666;-77
2023/04/30 05:15:20;;;;;;;7.85;7.17;;;14.50;83.90;;;;;;911908;152;27379;-77
2023/04/30 05:17:47;;;;;;;7.70;6.95;;;15.00;85.10;;;;;;919289;152;27358;-77
2023/04/30 05:20:13;;;;;;;7.65;6.97;;;15.60;85.60;;;;;;934509;150;27443;-77
2023/04/30 05:22:40;;;;;;;7.65;6.95;;;16.30;85.40;;;;;;918113;152;27375;-77
2023/04/30 05:25:07;;;;;;;7.33;6.62;;;17.10;84.90;;;;;;933389;149;27394;-77
2023/04/30 05:27:33;;;;;;;6.97;6.28;;;17.80;83.90;;;;;;935465;149;27334;-77
2023/04/30 05:30:00;;;;;;;6.40;5.83;;;18.60;81.70;;;;;;923453;151;27359;-77
2023/04/30 05:32:26;;;;;;;6.58;6.00;;;19.30;78.90;;;;;;916491;152;27813;-77
2023/04/30 05:34:53;;;;;;;6.90;6.20;;;20.00;76.70;;;;;;919757;152;27308;-77
2023/04/30 05:37:21;;;;;;;5.37;4.97;;;20.60;74.50;;;;;;917726;152;27375;-77
2023/04/30 05:39:46;;;;;;;5.50;5.00;;;21.00;71.60;;;;;;920860;152;27463;-77
2023/04/30 05:42:13;;;;;;;5.30;4.37;;;21.40;68.90;;;;;;917670;152;27530;-77
2023/04/30 05:44:39;;;;;;;4.83;4.42;;;21.60;67.20;;;;;;911341;153;27493;-77
2023/04/30 05:47:06;;;;;;;5.08;4.58;;;21.80;66.50;;;;;;918788;152;27482;-77
2023/04/30 05:49:32;;;;;;;5.03;4.62;;;22.00;66.70;;;;;;925851;152;27368;-77
2023/04/30 05:52:01;;;;;;;4.87;3.98;;;22.30;66.00;;;;;;932111;150;27380;-77
2023/04/30 05:54:26;;;;;;;4.45;4.05;;;22.60;65.30;;;;;;933113;149;27533;-77
2023/04/30 05:56:52;;;;;;;5.17;3.98;;;23.00;64.70;;;;;;932564;150;28127;-77
2023/04/30 05:59:19;;;;;;;3.75;3.45;;;23.30;64.00;;;;;;931898;150;27350;-77
2023/04/30 06:01:45;;;;;;;3.67;3.37;;;23.70;63.30;;;;;;932444;150;27463;-77
2023/04/30 06:04:12;;;;;;;4.10;3.80;;;24.10;62.60;;;;;;932575;150;27475;-77
2023/04/30 06:06:39;;;;;;;3.92;3.55;;;24.50;62.00;;;;;;932608;150;27419;-77
2023/04/30 06:09:05;;;;;;;3.30;3.02;;;24.90;61.00;;;;;;932756;150;27468;-75
2023/04/30 06:11:32;;;;;;;4.12;3.83;;;25.30;60.30;;;;;;932653;150;27467;-75
2023/04/30 06:13:58;;;;;;;3.35;3.05;;;25.80;59.60;;;;;;932921;150;27368;-76
2023/04/30 06:16:25;;;;;;;3.02;2.83;;;26.20;58.70;;;;;;932115;150;27353;-76
2023/04/30 06:18:51;;;;;;;3.40;3.10;;;26.60;58.00;;;;;;932126;150;27328;-76
2023/04/30 06:21:19;;;;;;;3.50;3.20;;;26.90;57.20;;;;;;932154;150;27318;-76
2023/04/30 06:23:45;;;;;;;3.08;2.80;;;27.30;56.40;;;;;;932100;150;27445;-76
2023/04/30 06:26:13;;;;;;;2.33;2.20;;;27.60;55.60;;;;;;933051;150;27443;-76
2023/04/30 06:28:38;;;;;;;2.70;2.50;;;28.00;54.90;;;;;;931226;150;27398;-76
2023/04/30 06:31:04;;;;;;;3.15;2.90;;;28.30;53.90;;;;;;931796;150;27280;-76
2023/04/30 06:33:31;;;;;;;4.60;2.60;;;28.50;53.10;;;;;;932388;150;27391;-76
2023/04/30 06:35:58;;;;;;;3.27;2.55;;;28.70;52.50;;;;;;932313;150;27479;-76
2023/04/30 06:38:24;;;;;;;2.87;2.67;;;28.90;52.00;;;;;;931436;150;27407;-77
2023/04/30 06:40:51;;;;;;;2.98;2.70;;;29.10;51.00;;;;;;930979;150;27415;-76
2023/04/30 06:43:17;;;;;;;2.62;2.20;;;29.20;50.10;;;;;;932705;150;27443;-76
2023/04/30 06:45:44;;;;;;;2.75;2.50;;;29.30;50.00;;;;;;932280;150;27420;-76
2023/04/30 06:48:11;;;;;;;2.35;2.15;;;29.40;50.00;;;;;;931883;150;27326;-77
2023/04/30 06:50:43;;;;;;;2.80;2.55;;;29.60;49.60;;;;;;927371;151;27384;-76
2023/04/30 06:53:04;;;;;;;2.10;2.00;;;29.80;49.50;;;;;;909760;155;27371;-76
2023/04/30 06:55:30;;;;;;;2.17;1.87;;;30.00;49.00;;;;;;926448;150;27862;-76
2023/04/30 06:57:57;;;;;;;2.10;2.00;;;30.20;48.30;;;;;;920904;153;27491;-76
2023/04/30 07:00:23;;;;;;;2.30;2.10;;;30.40;47.60;;;;;;923838;151;27420;-76
2023/04/30 07:02:50;;;;;;;2.20;1.90;;;30.60;47.10;;;;;;923707;151;27453;-77
2023/04/30 07:05:17;;;;;;;2.27;2.08;;;30.70;46.90;;;;;;926008;151;27348;-76
2023/04/30 07:07:43;;;;;;;1.82;1.72;;;30.80;46.90;;;;;;925788;151;27470;-76
2023/04/30 07:10:10;;;;;;;1.70;1.60;;;31.10;46.50;;;;;;923865;151;27349;-76
2023/04/30 07:12:36;;;;;;;1.82;1.72;;;31.20;45.90;;;;;;924843;151;27343;-76
2023/04/30 07:15:03;;;;;;;2.72;1.67;;;31.40;45.80;;;;;;924955;151;27392;-76
2023/04/30 07:17:30;;;;;;;1.85;1.70;;;31.70;45.60;;;;;;926291;151;27389;-77
2023/04/30 07:19:56;;;;;;;1.40;1.20;;;32.00;45.30;;;;;;924062;151;26229;-77
2023/04/30 07:22:23;;;;;;;2.30;1.47;;;32.30;45.00;;;;;;924165;151;27405;-76
2023/04/30 07:24:50;;;;;;;1.47;1.37;;;32.60;44.30;;;;;;925649;151;27378;-77
2023/04/30 07:27:16;;;;;;;1.40;1.30;;;32.80;43.70;;;;;;925162;151;27465;-76
2023/04/30 07:29:43;;;;;;;1.35;1.20;;;33.10;42.50;;;;;;923373;153;27380;-77
2023/04/30 07:32:09;;;;;;;1.50;1.12;;;33.20;42.30;;;;;;922234;153;26230;-77
2023/04/30 07:34:36;;;;;;;1.40;1.10;;;33.30;42.10;;;;;;922394;153;27785;-76
2023/04/30 07:37:02;;;;;;;1.27;1.17;;;33.50;41.80;;;;;;925310;150;26274;-76
2023/04/30 07:39:29;;;;;;;0.90;0.90;;;33.70;41.70;;;;;;922406;150;26294;-76
2023/04/30 07:41:56;;;;;;;0.80;0.80;;;34.00;41.70;;;;;;922744;153;26320;-77
2023/04/30 07:44:22;;;;;;;0.90;0.80;;;34.20;41.20;;;;;;923795;153;27010;-76
2023/04/30 07:46:49;;;;;;;1.12;1.02;;;34.60;40.60;;;;;;924996;153;26339;-76
2023/04/30 07:49:15;;;;;;;1.45;1.35;;;34.90;40.10;;;;;;923195;151;26302;-77
2023/04/30 07:51:42;;;;;;;1.00;1.00;;;35.10;39.60;;;;;;938090;150;26252;-76
2023/04/30 07:54:08;;;;;;;0.88;0.88;;;35.40;39.00;;;;;;920679;152;26338;-76
2023/04/30 07:56:35;;;;;;;1.00;0.90;;;35.50;38.40;;;;;;912653;156;26321;-76
2023/04/30 07:59:02;;;;;;;0.60;0.60;;;35.70;38.00;;;;;;912414;154;26279;-77
2023/04/30 08:01:28;;;;;;;0.72;0.70;;;35.80;37.70;;;;;;938548;150;26274;-77
2023/04/30 08:03:55;;;;;;;0.60;0.60;;;36.00;37.40;;;;;;938942;151;26250;-77
2023/04/30 08:06:22;;;;;;;0.70;0.70;;;36.10;36.80;;;;;;938540;151;26249;-77
2023/04/30 08:08:48;;;;;;;0.80;0.80;;;36.20;36.30;;;;;;938644;151;26264;-77
2023/04/30 08:11:15;;;;;;;0.65;0.65;;;36.30;36.10;;;;;;938866;150;26358;-78
2023/04/30 08:13:41;;;;;;;0.78;0.40;;;36.30;35.50;;;;;;915536;156;26283;-79
2023/04/30 08:16:08;;;;;;;0.70;0.70;;;36.40;35.40;;;;;;922549;153;26346;-79
2023/04/30 08:18:36;;;;;;;1.32;0.80;;;36.40;35.10;;;;;;938470;152;26241;-79
2023/04/30 08:21:01;;;;;;;0.65;0.47;;;36.50;35.10;;;;;;937917;152;26280;-79
2023/04/30 08:23:28;;;;;;;0.57;0.57;;;36.60;34.50;;;;;;938395;152;26273;-79
2023/04/30 08:25:55;;;;;;;0.55;0.55;;;36.60;34.20;;;;;;923770;152;27403;-79
2023/04/30 08:28:21;;;;;;;1.42;0.57;;;36.70;33.90;;;;;;912571;156;26232;-79
2023/04/30 08:30:47;;;;;;;0.33;0.33;;;36.70;33.50;;;;;;912927;154;27470;-79
2023/04/30 08:33:14;;;;;;;1.05;0.50;;;36.60;33.20;;;;;;938018;151;26365;-79
2023/04/30 08:35:40;;;;;;;0.40;0.40;;;36.60;33.00;;;;;;938930;152;26335;-79
2023/04/30 08:38:07;;;;;;;0.40;0.40;;;36.70;32.80;;;;;;938408;152;26229;-79
2023/04/30 08:40:34;;;;;;;0.40;0.40;;;36.70;32.60;;;;;;937936;152;26264;-79
2023/04/30 08:43:00;;;;;;;0.40;0.37;;;36.80;32.60;;;;;;938565;151;26253;-79
2023/04/30 08:45:27;;;;;;;0.60;0.60;;;36.80;32.10;;;;;;936968;152;26249;-79
2023/04/30 08:47:54;;;;;;;0.60;0.40;;;36.90;31.80;;;;;;938362;151;26324;-79
2023/04/30 08:50:20;;;;;;;1.42;0.40;;;36.90;31.60;;;;;;937667;149;26269;-79
2023/04/30 08:52:47;;;;;;;0.40;0.40;;;36.90;31.60;;;;;;911447;153;26323;-79
2023/04/30 08:55:13;;;;;;;0.37;0.37;;;37.00;31.30;;;;;;935256;149;26230;-80
2023/04/30 08:57:40;;;;;;;0.70;0.70;;;37.00;31.20;;;;;;917860;152;26322;-80
2023/04/30 09:00:07;;;;;;;0.47;0.47;;;37.00;30.90;;;;;;918557;152;26241;-80
2023/04/30 09:02:33;;;;;;;0.47;0.47;;;37.00;31.00;;;;;;918394;152;26304;-79
2023/04/30 09:05:00;;;;;;;0.50;0.50;;;37.10;30.90;;;;;;911748;153;26376;-80
2023/04/30 09:07:27;;;;;;;0.47;0.45;;;37.30;31.20;;;;;;926281;152;26281;-80
2023/04/30 09:09:53;;;;;;;0.98;0.88;;;37.50;31.10;;;;;;926737;152;26376;-80
2023/04/30 09:12:21;;;;;;;0.70;0.70;;;37.80;31.10;;;;;;926782;152;26282;-80
2023/04/30 09:14:58;;;;;;;0.55;0.55;;;38.00;30.50;;;;;;926876;152;26626;-80
2023/04/30 09:17:25;;;;;;;0.75;0.75;;;38.10;30.20;;;;;;927688;152;26393;-80
2023/04/30 09:19:52;;;;;;;0.50;0.47;;;38.30;30.00;;;;;;926881;151;26258;-80
2023/04/30 09:22:21;;;;;;;0.50;0.50;;;38.40;29.80;;;;;;926768;152;26257;-80
2023/04/30 09:24:48;;;;;;;0.47;0.47;;;38.40;29.20;;;;;;927009;152;26311;-80
2023/04/30 09:27:17;;;;;;;1.05;0.68;;;38.40;29.20;;;;;;926360;152;26370;-80
2023/04/30 09:29:44;;;;;;;1.12;0.85;;;38.30;28.90;;;;;;926729;151;26264;-81
2023/04/30 09:32:10;;;;;;;0.65;0.50;;;38.10;28.80;;;;;;926784;152;26261;-80
2023/04/30 09:34:36;;;;;;;0.50;0.50;;;37.90;28.60;;;;;;927081;152;26297;-80
2023/04/30 09:37:03;;;;;;;0.50;0.50;;;37.70;28.80;;;;;;927023;151;26401;-81
2023/04/30 09:39:30;;;;;;;1.20;0.98;;;37.60;28.80;;;;;;926493;152;26356;-80
2023/04/30 09:42:08;;;;;;;1.85;0.70;;;37.50;28.80;;;;;;911913;153;26369;-81
2023/04/30 09:44:38;;;;;;;1.35;0.60;;;37.40;28.90;;;;;;935493;149;26297;-81
2023/04/30 09:47:04;;;;;;;0.37;0.37;;;37.30;28.50;;;;;;911607;152;27563;-81
2023/04/30 09:49:31;;;;;;;0.45;0.45;;;37.00;28.40;;;;;;932947;149;26228;-81
2023/04/30 09:51:58;;;;;;;1.42;0.50;;;36.60;27.90;;;;;;925700;151;27893;-81
2023/04/30 09:54:30;;;;;;;0.62;0.62;;;36.10;28.10;;;;;;947029;149;26252;-81
2023/04/30 09:57:00;;;;;;;0.55;0.50;;;35.60;28.10;;;;;;947608;148;26291;-81
2023/04/30 09:59:31;;;;;;;1.15;0.65;;;35.10;27.90;;;;;;946583;148;27336;-81
2023/04/30 10:01:55;;;;;;;0.57;0.50;;;34.50;28.10;;;;;;945145;148;26332;-80
2023/04/30 10:04:22;;;;;;;0.78;0.42;;;34.00;28.20;;;;;;946268;148;26372;-81
2023/04/30 10:06:49;;;;;;;0.78;0.78;;;33.50;28.50;;;;;;930371;151;27469;-81
2023/04/30 10:09:15;;;;;;;1.02;0.75;;;33.00;28.50;;;;;;946640;148;27926;-81
2023/04/30 10:11:41;;;;;;;1.62;0.60;;;32.60;28.80;;;;;;946903;148;27354;-80
2023/04/30 10:14:10;;;;;;;0.82;0.60;;;32.10;28.80;;;;;;946921;149;27349;-81
2023/04/30 10:16:43;;;;;;;0.80;0.80;;;31.70;29.00;;;;;;929992;151;27350;-81
2023/04/30 10:19:19;;;;;;;1.47;0.50;;;31.20;29.20;;;;;;946983;148;27305;-81
2023/04/30 10:21:45;;;;;;;0.60;0.53;;;30.80;29.20;;;;;;924427;151;27365;-80
2023/04/30 10:24:17;;;;;;;0.55;0.50;;;30.50;29.40;;;;;;930434;151;27375;-80
2023/04/30 10:26:42;;;;;;;0.62;0.62;;;30.10;29.40;;;;;;946711;148;27441;-80
2023/04/30 10:29:08;;;;;;;0.72;0.72;;;29.80;29.50;;;;;;930421;151;27342;-80
2023/04/30 10:31:34;;;;;;;0.53;0.53;;;29.40;29.50;;;;;;933971;151;27331;-80
2023/04/30 10:34:25;;;;;;;0.70;0.70;;;29.10;29.60;;;;;;927859;152;27451;-80
2023/04/30 10:36:52;;;;;;;1.00;0.70;;;28.60;29.60;;;;;;929315;151;27356;-80
2023/04/30 10:39:18;;;;;;;0.70;0.70;;;28.10;29.90;;;;;;946177;148;27418;-80
2023/04/30 10:41:46;;;;;;;0.55;0.55;;;27.70;30.20;;;;;;946718;149;27618;-79
2023/04/30 10:44:11;;;;;;;0.60;0.60;;;27.30;30.50;;;;;;934989;151;27384;-79
2023/04/30 10:46:38;;;;;;;0.50;0.50;;;27.00;30.90;;;;;;926979;151;27371;-79
2023/04/30 10:49:05;;;;;;;0.82;0.72;;;26.70;31.10;;;;;;930288;151;27437;-79
2023/04/30 10:51:46;;;;;;;0.60;0.60;;;26.40;31.20;;;;;;947801;148;27356;-79
2023/04/30 10:54:18;;;;;;;3.80;0.90;;;26.20;31.50;;;;;;946951;148;27313;-79
2023/04/30 10:56:46;;;;;;;0.62;0.62;;;25.90;31.80;;;;;;947039;149;27377;-79
2023/04/30 10:59:11;;;;;;;0.72;0.60;;;25.70;31.90;;;;;;927294;152;27299;-79
2023/04/30 11:01:57;;;;;;;0.90;0.50;;;25.50;32.30;;;;;;927487;151;27362;-79
2023/04/30 11:04:23;;;;;;;1.55;0.53;;;25.30;32.40;;;;;;927093;152;27419;-79
2023/04/30 11:06:50;;;;;;;0.70;0.70;;;25.20;32.60;;;;;;927222;151;27756;-79
2023/04/30 11:09:16;;;;;;;0.95;0.50;;;25.00;32.80;;;;;;927222;152;27519;-79
2023/04/30 11:11:49;;;;;;;0.70;0.62;;;24.90;33.20;;;;;;929643;151;27322;-79
2023/04/30 11:14:12;;;;;;;0.47;0.47;;;24.80;33.40;;;;;;946387;148;27517;-79
2023/04/30 11:16:39;;;;;;;1.20;0.40;;;24.70;33.50;;;;;;946119;148;27374;-80
2023/04/30 11:19:12;;;;;;;0.57;0.57;;;24.60;33.80;;;;;;929187;150;27386;-80
2023/04/30 11:21:41;;;;;;;0.47;0.47;;;24.60;34.10;;;;;;927998;151;27363;-79
2023/04/30 11:24:08;;;;;;;0.65;0.35;;;24.60;34.30;;;;;;949523;148;27439;-79
2023/04/30 11:27:02;;;;;;;0.60;0.60;;;24.70;34.30;;;;;;946498;149;27656;-80
2023/04/30 11:29:29;;;;;;;0.37;0.37;;;24.70;34.20;;;;;;946671;148;27454;-79
2023/04/30 11:31:55;;;;;;;0.45;0.45;;;24.70;34.30;;;;;;946362;148;27345;-79
2023/04/30 11:34:22;;;;;;;0.42;0.42;;;24.70;34.40;;;;;;927733;152;27330;-80
2023/04/30 11:36:48;;;;;;;0.17;0.17;;;24.70;34.40;;;;;;927802;152;27752;-79
2023/04/30 11:39:15;;;;;;;0.50;0.50;;;24.60;34.50;;;;;;946472;151;27316;-79
2023/04/30 11:41:41;;;;;;;0.70;0.70;;;24.60;34.50;;;;;;945970;151;27368;-79
2023/04/30 11:44:26;;;;;;;0.30;0.30;;;24.60;34.50;;;;;;927587;152;27414;-79
2023/04/30 11:46:53;;;;;;;0.42;0.40;;;24.50;34.50;;;;;;947229;148;27443;-79
2023/04/30 11:49:22;;;;;;;0.13;0.13;;;24.40;34.70;;;;;;946354;149;27355;-79
2023/04/30 11:51:49;;;;;;;0.60;0.60;;;24.40;34.90;;;;;;927697;152;27479;-79
2023/04/30 11:54:15;;;;;;;0.70;0.70;;;24.30;35.20;;;;;;945323;151;27323;-79
2023/04/30 11:56:50;;;;;;;0.50;0.50;;;24.30;35.20;;;;;;946275;148;27476;-79
2023/04/30 11:59:16;;;;;;;1.40;0.42;;;24.40;35.20;;;;;;946237;151;27466;-79
2023/04/30 12:01:43;;;;;;;0.37;0.37;;;24.40;35.10;;;;;;945705;148;27342;-79
2023/04/30 12:04:10;;;;;;;2.08;0.33;;;24.50;35.10;;;;;;945479;150;27418;-79
2023/04/30 12:06:36;;;;;;;0.40;0.40;;;24.50;35.20;;;;;;926522;151;27372;-79
2023/04/30 12:09:07;;;;;;;0.45;0.40;;;24.60;35.40;;;;;;947005;148;27408;-79
2023/04/30 12:11:30;;;;;;;0.30;0.30;;;24.70;35.50;;;;;;944061;149;27410;-79
2023/04/30 12:14:11;;;;;;;0.35;0.35;;;24.90;35.50;;;;;;926947;152;27343;-79
2023/04/30 12:16:41;;;;;;;0.40;0.33;;;25.00;35.20;;;;;;945468;151;27305;-79
2023/04/30 12:19:08;;;;;;;0.40;0.40;;;25.10;35.00;;;;;;925903;151;27342;-79
2023/04/30 12:21:34;;;;;;;0.40;0.40;;;25.20;35.00;;;;;;929107;151;27479;-79
2023/04/30 12:24:01;;;;;;;0.75;0.40;;;25.20;34.70;;;;;;927086;152;27480;-79
2023/04/30 12:26:37;;;;;;;0.40;0.40;;;25.20;34.80;;;;;;928026;151;27299;-79
2023/04/30 12:29:09;;;;;;;0.20;0.20;;;25.20;34.70;;;;;;927769;152;27420;-79
2023/04/30 12:31:36;;;;;;;0.40;0.40;;;25.20;34.70;;;;;;945362;151;27491;-79
2023/04/30 12:34:08;;;;;;;0.30;0.23;;;25.20;35.00;;;;;;923526;151;27459;-79
2023/04/30 12:36:40;;;;;;;0.30;0.30;;;25.20;35.00;;;;;;924052;151;27375;-79
2023/04/30 12:39:14;;;;;;;0.40;0.40;;;25.30;35.00;;;;;;929544;151;27377;-78
2023/04/30 12:41:43;;;;;;;0.40;0.40;;;25.30;35.00;;;;;;928828;151;27383;-79
2023/04/30 12:44:24;;;;;;;0.40;0.40;;;25.40;35.10;;;;;;929094;151;27396;-79
2023/04/30 12:46:52;;;;;;;0.37;0.30;;;25.50;35.10;;;;;;929212;151;27392;-79